Time;durP1;ratioP1;P1;durP2;ratioP2;P2;SDS_P1;SDS_P2;PMS_P1;PMS_P2;Temp;Humidity;BMP_temperature;BMP_pressure;BME280_temperature;BME280_humidity;BME280_pressure;Samples;Min_cycle;Max_cycle;Signal;HPM_P1;HPM_P2
2023/01/24 00:01:14;;;;;;;18.75;9.65;;;-0.10;99.90;;;;;;5067250;28;20098;-64
2023/01/24 00:03:39;;;;;;;16.85;8.95;;;0.00;99.90;;;;;;5077826;28;20106;-64
2023/01/24 00:06:05;;;;;;;17.50;9.55;;;0.00;99.90;;;;;;5079398;28;20047;-64
2023/01/24 00:08:31;;;;;;;17.95;9.35;;;0.00;99.90;;;;;;5075438;28;20048;-64
2023/01/24 00:11:02;;;;;;;17.20;9.38;;;0.00;99.90;;;;;;5073733;28;20888;-63
2023/01/24 00:13:27;;;;;;;16.17;9.25;;;0.00;99.90;;;;;;5067935;28;20389;-63
2023/01/24 00:16:16;;;;;;;17.38;9.57;;;0.00;99.90;;;;;;5066904;28;20042;-62
2023/01/24 00:18:42;;;;;;;17.48;9.73;;;-0.10;99.90;;;;;;5060118;28;20072;-63
2023/01/24 00:21:20;;;;;;;18.35;10.90;;;-0.10;99.90;;;;;;5061980;28;20097;-62
2023/01/24 00:23:49;;;;;;;18.33;10.20;;;-0.10;99.90;;;;;;5057293;28;20480;-64
2023/01/24 00:26:16;;;;;;;15.05;9.05;;;-0.10;99.90;;;;;;5065175;28;20512;-63
2023/01/24 00:28:42;;;;;;;21.02;11.88;;;-0.10;99.90;;;;;;5057225;28;20059;-61
2023/01/24 00:31:07;;;;;;;19.45;11.07;;;-0.20;99.90;;;;;;5055845;28;20488;-61
2023/01/24 00:33:33;;;;;;;19.73;11.77;;;-0.20;99.90;;;;;;5058077;28;20045;-61
2023/01/24 00:35:59;;;;;;;20.85;11.40;;;-0.20;99.90;;;;;;5060523;28;20033;-61
2023/01/24 00:38:25;;;;;;;18.70;10.70;;;-0.20;99.90;;;;;;5063534;28;20357;-59
2023/01/24 00:40:51;;;;;;;21.70;11.63;;;-0.20;99.90;;;;;;5054210;28;20504;-62
2023/01/24 00:43:17;;;;;;;19.08;10.50;;;-0.20;99.90;;;;;;5059326;28;20036;-62
2023/01/24 00:45:44;;;;;;;19.20;10.35;;;-0.10;99.90;;;;;;5064222;28;20397;-62
2023/01/24 00:48:10;;;;;;;22.27;11.00;;;-0.20;99.90;;;;;;5063165;28;20063;-63
2023/01/24 00:50:36;;;;;;;19.95;11.73;;;-0.20;99.90;;;;;;5059567;28;20500;-62
2023/01/24 00:53:02;;;;;;;22.02;12.13;;;-0.20;99.90;;;;;;5060711;28;20114;-61
2023/01/24 00:55:28;;;;;;;19.23;11.18;;;-0.20;99.90;;;;;;5059702;28;20568;-62
2023/01/24 00:57:53;;;;;;;22.50;11.10;;;-0.20;99.90;;;;;;5062268;28;20049;-61
2023/01/24 01:00:20;;;;;;;17.15;10.65;;;-0.20;99.90;;;;;;5056833;28;20120;-62
2023/01/24 01:02:46;;;;;;;17.80;9.98;;;-0.20;99.90;;;;;;5064473;28;20040;-62
2023/01/24 01:05:11;;;;;;;17.10;9.85;;;-0.20;99.90;;;;;;5059645;28;20033;-62
2023/01/24 01:07:37;;;;;;;17.50;10.20;;;-0.20;99.90;;;;;;5064696;28;20037;-61
2023/01/24 01:10:03;;;;;;;14.80;8.95;;;-0.30;99.90;;;;;;5056469;28;20063;-62
2023/01/24 01:12:29;;;;;;;16.45;9.23;;;-0.20;99.90;;;;;;5064656;28;20141;-62
2023/01/24 01:14:54;;;;;;;17.48;10.23;;;-0.20;99.90;;;;;;5058426;28;20116;-62
2023/01/24 01:17:21;;;;;;;17.30;9.90;;;-0.20;99.90;;;;;;5064397;28;20044;-63
2023/01/24 01:19:52;;;;;;;15.27;9.15;;;-0.20;99.90;;;;;;5056431;28;20128;-59
2023/01/24 01:22:19;;;;;;;16.77;10.20;;;-0.20;99.90;;;;;;5062884;28;20044;-62
2023/01/24 01:24:44;;;;;;;20.80;11.18;;;-0.20;99.90;;;;;;5062813;28;20560;-62
2023/01/24 01:27:10;;;;;;;18.33;10.85;;;-0.20;99.90;;;;;;5056621;28;20131;-58
2023/01/24 01:29:35;;;;;;;22.15;11.02;;;-0.20;99.90;;;;;;5062464;28;21142;-62
2023/01/24 01:32:01;;;;;;;20.00;11.25;;;-0.20;99.90;;;;;;5049977;28;20481;-59
2023/01/24 01:34:27;;;;;;;19.48;11.40;;;-0.20;99.90;;;;;;5040830;28;20514;-60
2023/01/24 01:36:52;;;;;;;23.27;12.23;;;-0.20;99.90;;;;;;5046814;28;20076;-61
2023/01/24 01:39:18;;;;;;;22.15;11.57;;;-0.20;99.90;;;;;;5037067;28;20107;-63
2023/01/24 01:41:44;;;;;;;20.42;12.20;;;-0.30;99.90;;;;;;5045644;28;20048;-61
2023/01/24 01:44:41;;;;;;;24.23;13.35;;;-0.30;99.90;;;;;;5042005;28;20032;-60
2023/01/24 01:47:19;;;;;;;;;;;-0.20;99.90;;;;;;5044802;28;20044;-62
2023/01/24 01:49:56;;;;;;;22.55;11.90;;;-0.30;99.90;;;;;;5040120;28;20022;-61
2023/01/24 01:52:24;;;;;;;23.48;11.73;;;-0.30;99.90;;;;;;5038869;28;20045;-62
2023/01/24 01:54:53;;;;;;;26.73;12.75;;;-0.30;99.90;;;;;;5042989;28;20206;-63
2023/01/24 01:57:23;;;;;;;18.73;9.68;;;-0.30;99.90;;;;;;5044766;28;20413;-61
2023/01/24 02:00:00;;;;;;;20.15;10.15;;;-0.30;99.90;;;;;;5043963;28;20508;-63
2023/01/24 02:02:26;;;;;;;19.98;12.20;;;-0.30;99.90;;;;;;5052962;28;20136;-63
2023/01/24 02:04:59;;;;;;;21.95;11.65;;;-0.30;99.90;;;;;;5064174;28;20111;-63
2023/01/24 02:07:51;;;;;;;21.30;11.45;;;-0.30;99.90;;;;;;5063012;28;20048;-61
2023/01/24 02:10:21;;;;;;;20.38;10.85;;;-0.30;99.90;;;;;;5065086;28;20040;-60
2023/01/24 02:12:49;;;;;;;16.38;9.90;;;-0.30;99.90;;;;;;5061225;28;20040;-63
2023/01/24 02:18:04;;;;;;;15.77;8.77;;;-0.30;99.90;;;;;;5056599;28;20544;-61
2023/01/24 02:20:38;;;;;;;16.90;10.48;;;-0.30;99.90;;;;;;5054381;28;20055;-60
2023/01/24 02:23:22;;;;;;;14.95;8.75;;;-0.30;99.90;;;;;;5058135;28;20072;-61
2023/01/24 02:26:06;;;;;;;15.60;8.27;;;-0.30;99.90;;;;;;5061689;28;20052;-61
2023/01/24 02:28:33;;;;;;;15.55;9.48;;;-0.30;99.90;;;;;;5053265;28;20032;-62
2023/01/24 02:31:00;;;;;;;18.67;10.13;;;-0.20;99.90;;;;;;5065193;28;20105;-62
2023/01/24 02:33:27;;;;;;;19.67;11.02;;;-0.20;99.90;;;;;;5050819;28;20507;-63
2023/01/24 02:36:24;;;;;;;16.55;9.98;;;-0.30;99.90;;;;;;5065465;28;20131;-62
2023/01/24 02:39:13;;;;;;;17.75;9.90;;;-0.30;99.90;;;;;;5053456;28;20041;-62
2023/01/24 02:41:44;;;;;;;18.50;10.43;;;-0.30;99.90;;;;;;5065349;28;20052;-62
2023/01/24 02:44:14;;;;;;;22.20;12.20;;;-0.30;99.90;;;;;;5060167;28;20037;-62
2023/01/24 02:46:44;;;;;;;21.10;11.40;;;-0.30;99.90;;;;;;5063592;28;20044;-62
2023/01/24 02:49:10;;;;;;;17.38;10.32;;;-0.30;99.90;;;;;;5057540;28;20051;-61
2023/01/24 02:54:22;;;;;;;22.63;11.88;;;-0.30;99.90;;;;;;5051531;28;20040;-62
2023/01/24 02:59:32;;;;;;;21.63;13.52;;;-0.20;99.90;;;;;;5057171;28;20037;-63
2023/01/24 03:01:57;;;;;;;21.90;12.02;;;-0.20;99.90;;;;;;5044755;28;20439;-62
2023/01/24 03:04:23;;;;;;;20.88;11.00;;;-0.20;99.90;;;;;;5044061;28;20037;-62
2023/01/24 03:06:48;;;;;;;21.73;11.95;;;-0.10;99.90;;;;;;5044903;28;20381;-63
2023/01/24 03:09:18;;;;;;;19.17;10.43;;;-0.10;99.90;;;;;;5039582;28;20091;-61
2023/01/24 03:11:48;;;;;;;20.48;10.32;;;-0.10;99.90;;;;;;5044531;28;20055;-61
2023/01/24 03:36:19;;;;;;;18.38;9.15;;;-0.30;99.90;;;;;;5043322;28;20132;-63
2023/01/24 03:41:30;;;;;;;14.10;8.40;;;-0.30;99.90;;;;;;5037080;28;20413;-61
2023/01/24 03:43:56;;;;;;;16.85;9.85;;;-0.20;99.90;;;;;;5039900;28;20045;-58
2023/01/24 03:46:21;;;;;;;17.38;9.20;;;-0.20;99.90;;;;;;5042668;28;20052;-63
2023/01/24 03:48:47;;;;;;;16.55;10.07;;;-0.20;99.90;;;;;;5039215;28;20195;-63
2023/01/24 03:53:57;;;;;;;17.83;10.02;;;-0.20;99.90;;;;;;5038617;28;20043;-63
2023/01/24 03:56:23;;;;;;;14.77;8.57;;;-0.30;99.90;;;;;;5047944;28;20503;-61
2023/01/24 03:58:48;;;;;;;15.82;10.15;;;-0.30;99.90;;;;;;5042203;28;20133;-61
2023/01/24 04:01:14;;;;;;;15.93;9.32;;;-0.20;99.90;;;;;;5047898;28;20523;-63
2023/01/24 04:03:40;;;;;;;21.48;11.55;;;-0.20;99.90;;;;;;5054373;28;20049;-60
2023/01/24 04:06:05;;;;;;;22.05;10.52;;;-0.20;99.90;;;;;;5054920;28;20052;-59
2023/01/24 04:08:31;;;;;;;19.10;9.85;;;-0.20;99.90;;;;;;5054182;28;20573;-61
2023/01/24 04:10:57;;;;;;;17.70;10.27;;;-0.20;99.90;;;;;;5051347;28;20040;-61
2023/01/24 04:13:23;;;;;;;17.05;9.65;;;-0.20;99.90;;;;;;5052235;28;20695;-62
2023/01/24 04:15:49;;;;;;;20.33;10.05;;;-0.20;99.90;;;;;;5060250;28;20124;-63
2023/01/24 04:18:15;;;;;;;18.50;10.77;;;-0.20;99.90;;;;;;5058884;28;20036;-63
2023/01/24 04:20:40;;;;;;;21.30;11.00;;;-0.20;99.90;;;;;;5051554;28;20535;-62
2023/01/24 04:23:07;;;;;;;19.92;11.43;;;-0.20;99.90;;;;;;5057645;28;20052;-64
2023/01/24 04:25:34;;;;;;;18.42;11.55;;;-0.30;99.90;;;;;;5054109;28;20087;-57
2023/01/24 04:28:00;;;;;;;23.27;12.73;;;-0.20;99.90;;;;;;5054254;28;20041;-63
2023/01/24 04:30:26;;;;;;;20.10;11.57;;;-0.20;99.90;;;;;;5051595;28;20040;-63
2023/01/24 04:32:52;;;;;;;18.27;10.98;;;-0.20;99.90;;;;;;5052601;28;20086;-62
2023/01/24 04:35:21;;;;;;;16.92;10.40;;;-0.10;99.90;;;;;;5052768;28;20135;-60
2023/01/24 04:37:47;;;;;;;17.30;11.10;;;-0.10;99.90;;;;;;5056754;28;20036;-62
2023/01/24 04:40:14;;;;;;;16.63;10.23;;;-0.10;99.90;;;;;;5051786;28;20077;-63
2023/01/24 04:42:40;;;;;;;16.85;9.70;;;0.00;99.90;;;;;;5055413;28;20040;-62
2023/01/24 04:45:07;;;;;;;15.98;9.95;;;-0.10;99.90;;;;;;5055369;28;20037;-60
2023/01/24 04:47:32;;;;;;;16.73;10.10;;;-0.10;99.90;;;;;;5047804;28;20040;-62
2023/01/24 04:49:58;;;;;;;15.27;9.40;;;-0.10;99.90;;;;;;5048105;28;20044;-59
2023/01/24 04:52:23;;;;;;;19.50;9.80;;;-0.20;99.90;;;;;;5055788;28;20514;-63
2023/01/24 04:54:51;;;;;;;16.42;9.60;;;-0.20;99.90;;;;;;5050666;28;20052;-60
2023/01/24 04:57:17;;;;;;;15.55;9.95;;;-0.20;99.90;;;;;;5056158;28;20076;-62
2023/01/24 04:59:44;;;;;;;15.95;9.20;;;-0.20;99.90;;;;;;5062720;28;20780;-61
2023/01/24 05:02:09;;;;;;;14.95;9.13;;;-0.20;99.90;;;;;;5054736;28;20067;-61
2023/01/24 05:04:35;;;;;;;15.15;9.38;;;-0.30;99.90;;;;;;5054831;28;20517;-61
2023/01/24 05:07:01;;;;;;;13.32;8.25;;;-0.30;99.90;;;;;;5046650;28;20076;-63
2023/01/24 05:09:26;;;;;;;14.60;9.25;;;-0.20;99.90;;;;;;5060823;28;20085;-63
2023/01/24 05:11:52;;;;;;;16.02;9.50;;;-0.20;99.90;;;;;;5055311;28;20077;-61
2023/01/24 05:14:18;;;;;;;15.50;9.02;;;-0.20;99.90;;;;;;5053745;28;20040;-62
2023/01/24 05:16:43;;;;;;;13.65;8.45;;;-0.20;99.90;;;;;;5054818;28;20051;-60
2023/01/24 05:19:09;;;;;;;15.60;8.57;;;-0.30;99.90;;;;;;5054281;28;20052;-63
2023/01/24 05:21:34;;;;;;;13.77;8.38;;;-0.30;99.90;;;;;;5054063;28;20041;-64
2023/01/24 05:24:00;;;;;;;13.55;8.82;;;-0.40;99.90;;;;;;5051472;28;20076;-60
2023/01/24 05:26:26;;;;;;;13.07;8.43;;;-0.40;99.90;;;;;;5053266;28;20394;-61
2023/01/24 05:28:52;;;;;;;16.95;9.63;;;-0.40;99.90;;;;;;5051018;28;20090;-62
2023/01/24 05:31:18;;;;;;;16.38;9.57;;;-0.40;99.90;;;;;;5047604;28;20033;-61
2023/01/24 05:33:45;;;;;;;13.30;8.02;;;-0.40;99.90;;;;;;5055948;28;20558;-61
2023/01/24 05:36:18;;;;;;;13.25;8.20;;;-0.30;99.90;;;;;;5056858;28;20044;-62
2023/01/24 05:38:44;;;;;;;13.63;8.52;;;-0.30;99.90;;;;;;5052612;28;20505;-63
2023/01/24 05:41:13;;;;;;;15.82;9.10;;;-0.30;99.90;;;;;;5055498;28;20116;-63
2023/01/24 05:43:38;;;;;;;15.40;9.30;;;-0.20;99.90;;;;;;5050308;28;20417;-62
2023/01/24 05:46:06;;;;;;;14.65;9.18;;;-0.30;99.90;;;;;;5051743;28;20128;-62
2023/01/24 05:48:32;;;;;;;20.88;9.48;;;-0.30;99.90;;;;;;5057646;28;20036;-59
2023/01/24 05:51:04;;;;;;;15.10;8.95;;;-0.30;99.90;;;;;;5054063;28;20028;-63
2023/01/24 05:53:31;;;;;;;14.57;8.65;;;-0.40;99.90;;;;;;5053483;28;20098;-62
2023/01/24 05:56:02;;;;;;;14.20;8.82;;;-0.40;99.90;;;;;;5055962;28;20093;-62
2023/01/24 05:58:31;;;;;;;12.57;8.35;;;-0.40;99.90;;;;;;5049450;28;20059;-61
2023/01/24 06:00:57;;;;;;;14.40;8.77;;;-0.30;99.90;;;;;;5047018;28;20140;-61
2023/01/24 06:03:23;;;;;;;14.23;8.52;;;-0.30;99.90;;;;;;5049721;28;20128;-63
2023/01/24 06:05:50;;;;;;;15.15;9.52;;;-0.40;99.90;;;;;;5054567;28;20044;-63
2023/01/24 06:08:16;;;;;;;17.40;10.35;;;-0.30;99.90;;;;;;5050639;28;20111;-61
2023/01/24 06:10:42;;;;;;;14.55;8.45;;;-0.30;99.90;;;;;;5052894;28;20795;-63
2023/01/24 06:13:09;;;;;;;16.33;9.25;;;-0.30;99.90;;;;;;5052899;28;20064;-63
2023/01/24 06:15:35;;;;;;;15.07;9.77;;;-0.30;99.90;;;;;;5047762;28;20612;-61
2023/01/24 06:18:01;;;;;;;14.65;8.55;;;-0.30;99.90;;;;;;5057257;28;20133;-63
2023/01/24 06:20:27;;;;;;;15.55;9.80;;;-0.30;99.90;;;;;;5053824;28;20044;-62
2023/01/24 06:22:56;;;;;;;16.17;9.52;;;-0.30;99.90;;;;;;5053312;28;20039;-61
2023/01/24 06:25:25;;;;;;;16.80;10.20;;;-0.30;99.90;;;;;;5050548;28;20025;-62
2023/01/24 06:27:52;;;;;;;16.63;9.88;;;-0.30;99.90;;;;;;5055140;28;20065;-64
2023/01/24 06:30:19;;;;;;;15.57;8.68;;;-0.30;99.90;;;;;;5052058;28;20489;-62
2023/01/24 06:32:54;;;;;;;14.85;9.15;;;-0.30;99.90;;;;;;5053760;28;20037;-62
2023/01/24 06:35:25;;;;;;;17.85;10.18;;;-0.20;99.90;;;;;;5047930;28;20127;-61
2023/01/24 06:37:52;;;;;;;13.98;9.23;;;-0.20;99.90;;;;;;5052361;28;20065;-62
2023/01/24 06:40:22;;;;;;;15.68;9.40;;;-0.20;99.90;;;;;;5051703;28;20401;-63
2023/01/24 06:42:49;;;;;;;15.93;8.90;;;-0.10;99.90;;;;;;5076104;28;20037;-65
2023/01/24 06:45:15;;;;;;;14.38;9.60;;;-0.10;99.90;;;;;;5048303;28;20044;-65
2023/01/24 06:47:42;;;;;;;14.50;8.98;;;-0.20;99.90;;;;;;5047584;28;20123;-62
2023/01/24 06:50:16;;;;;;;17.80;9.90;;;-0.30;99.90;;;;;;5051365;28;20087;-63
2023/01/24 06:52:45;;;;;;;14.65;8.98;;;-0.40;99.90;;;;;;5047400;28;20045;-64
2023/01/24 06:55:10;;;;;;;15.57;9.55;;;-0.40;99.90;;;;;;5046992;28;20051;-60
2023/01/24 06:57:36;;;;;;;15.02;9.45;;;-0.40;99.90;;;;;;5051005;28;20392;-61
2023/01/24 07:00:03;;;;;;;17.38;9.10;;;-0.40;99.90;;;;;;5043588;28;20460;-60
2023/01/24 07:02:28;;;;;;;15.73;9.13;;;-0.30;99.90;;;;;;5051845;28;20041;-63
2023/01/24 07:04:54;;;;;;;16.10;9.80;;;-0.40;99.90;;;;;;5051582;28;20040;-61
2023/01/24 07:07:20;;;;;;;13.45;8.60;;;-0.40;99.90;;;;;;5064554;28;20090;-64
2023/01/24 07:09:45;;;;;;;16.00;9.20;;;-0.40;99.90;;;;;;5060296;28;20131;-59
2023/01/24 07:12:11;;;;;;;14.85;9.23;;;-0.40;99.90;;;;;;5051599;28;20062;-60
2023/01/24 07:14:36;;;;;;;18.05;10.30;;;-0.50;99.90;;;;;;5052619;28;20063;-61
2023/01/24 07:17:02;;;;;;;16.92;9.98;;;-0.40;99.90;;;;;;5061574;28;20041;-60
2023/01/24 07:19:28;;;;;;;16.98;10.40;;;-0.40;99.90;;;;;;5047558;28;20049;-61
2023/01/24 07:21:56;;;;;;;17.25;10.18;;;-0.40;99.90;;;;;;5057109;28;20040;-59
2023/01/24 07:24:25;;;;;;;16.30;9.80;;;-0.40;99.90;;;;;;5050411;28;20044;-59
2023/01/24 07:26:51;;;;;;;15.85;9.98;;;-0.40;99.90;;;;;;5051987;28;20092;-62
2023/01/24 07:29:21;;;;;;;18.88;11.07;;;-0.40;99.90;;;;;;5054113;28;20072;-63
2023/01/24 07:31:48;;;;;;;14.88;9.05;;;-0.40;99.90;;;;;;5053986;28;20540;-62
2023/01/24 07:34:15;;;;;;;13.77;8.98;;;-0.50;99.90;;;;;;5054878;28;20040;-62
2023/01/24 07:36:42;;;;;;;13.70;8.93;;;-0.50;99.90;;;;;;5048366;28;20052;-59
2023/01/24 07:39:08;;;;;;;14.35;8.82;;;-0.50;99.90;;;;;;5051655;28;20064;-63
2023/01/24 07:41:35;;;;;;;16.77;9.68;;;-0.60;99.90;;;;;;5053907;28;20128;-62
2023/01/24 07:44:04;;;;;;;13.93;8.65;;;-0.60;99.90;;;;;;5055803;28;20075;-61
2023/01/24 07:46:31;;;;;;;13.82;7.72;;;-0.60;99.90;;;;;;5056466;28;20063;-63
2023/01/24 07:48:57;;;;;;;14.52;8.85;;;-0.60;99.90;;;;;;5052304;28;20044;-61
2023/01/24 07:51:23;;;;;;;12.38;7.57;;;-0.60;99.90;;;;;;5055799;28;20060;-62
2023/01/24 07:53:48;;;;;;;17.77;8.48;;;-0.60;99.90;;;;;;5052148;28;20889;-63
2023/01/24 07:56:16;;;;;;;11.45;7.40;;;-0.60;99.90;;;;;;5054086;28;20036;-63
2023/01/24 07:58:42;;;;;;;13.77;8.25;;;-0.50;99.90;;;;;;5052761;28;20558;-63
2023/01/24 08:01:08;;;;;;;14.85;8.90;;;-0.40;99.90;;;;;;5059166;28;20040;-63
2023/01/24 08:03:33;;;;;;;15.27;9.52;;;-0.40;99.90;;;;;;5058670;28;20389;-62
2023/01/24 08:05:59;;;;;;;14.55;8.73;;;-0.40;99.90;;;;;;5059510;28;20135;-61
2023/01/24 08:08:25;;;;;;;11.05;7.47;;;-0.40;99.90;;;;;;5054182;28;20064;-62
2023/01/24 08:10:50;;;;;;;11.25;7.40;;;-0.30;99.90;;;;;;5057211;28;20037;-62
2023/01/24 08:13:16;;;;;;;12.98;8.43;;;-0.30;99.90;;;;;;5055986;28;20075;-62
2023/01/24 08:15:42;;;;;;;12.45;8.38;;;-0.30;99.90;;;;;;5051189;28;20481;-63
2023/01/24 08:18:07;;;;;;;13.93;9.10;;;-0.30;99.90;;;;;;5055815;28;20036;-62
2023/01/24 08:20:33;;;;;;;12.02;7.45;;;-0.40;99.90;;;;;;5055084;28;20040;-62
2023/01/24 08:22:59;;;;;;;11.75;7.05;;;-0.40;99.90;;;;;;5055034;28;20036;-61
2023/01/24 08:25:26;;;;;;;10.63;7.20;;;-0.40;99.90;;;;;;5060493;28;20035;-62
2023/01/24 08:27:52;;;;;;;11.02;7.18;;;-0.40;99.90;;;;;;5060704;28;20115;-64
2023/01/24 08:30:19;;;;;;;11.52;7.70;;;-0.40;99.90;;;;;;5055039;28;20063;-60
2023/01/24 08:32:45;;;;;;;14.77;7.85;;;-0.40;99.90;;;;;;5051998;28;20041;-62
2023/01/24 08:35:11;;;;;;;11.10;7.40;;;-0.40;99.90;;;;;;5055810;28;20045;-64
2023/01/24 08:37:36;;;;;;;12.13;7.97;;;-0.30;99.90;;;;;;5049869;28;20040;-63
2023/01/24 08:40:03;;;;;;;15.20;9.10;;;-0.40;99.90;;;;;;5054553;28;20488;-61
2023/01/24 08:42:29;;;;;;;10.27;6.70;;;-0.30;99.90;;;;;;5052642;28;20086;-64
2023/01/24 08:44:54;;;;;;;9.02;6.25;;;-0.40;99.90;;;;;;5057721;28;20044;-61
2023/01/24 08:47:20;;;;;;;10.65;6.20;;;-0.40;99.90;;;;;;5073913;28;20463;-60
2023/01/24 08:49:45;;;;;;;10.65;6.93;;;-0.40;99.90;;;;;;5050749;28;20041;-61
2023/01/24 08:52:11;;;;;;;7.03;5.18;;;-0.40;99.90;;;;;;5049675;28;20037;-60
2023/01/24 08:54:38;;;;;;;10.23;5.53;;;-0.50;99.90;;;;;;5061813;28;20040;-62
2023/01/24 08:57:06;;;;;;;7.63;5.18;;;-0.40;99.90;;;;;;5053230;28;20072;-65
2023/01/24 08:59:32;;;;;;;7.15;5.20;;;-0.30;99.90;;;;;;5060058;28;20497;-59
2023/01/24 09:01:57;;;;;;;8.80;6.00;;;-0.40;99.90;;;;;;5058849;28;20171;-63
2023/01/24 09:04:26;;;;;;;9.68;6.00;;;-0.40;99.90;;;;;;5052064;28;20763;-64
2023/01/24 09:06:52;;;;;;;9.57;6.18;;;-0.40;99.90;;;;;;5058439;28;20049;-60
2023/01/24 09:09:18;;;;;;;9.55;5.65;;;-0.40;99.90;;;;;;5050663;28;20076;-61
2023/01/24 09:11:44;;;;;;;9.15;5.55;;;-0.40;99.90;;;;;;5040613;28;20124;-62
2023/01/24 09:14:10;;;;;;;8.25;5.22;;;-0.50;99.90;;;;;;5056966;28;20045;-63
2023/01/24 09:16:35;;;;;;;8.65;5.80;;;-0.50;99.90;;;;;;5073766;28;20059;-62
2023/01/24 09:19:01;;;;;;;12.20;7.22;;;-0.60;99.90;;;;;;5051931;28;20101;-62
2023/01/24 09:21:27;;;;;;;10.40;6.55;;;-0.60;99.90;;;;;;5053673;28;20048;-62
2023/01/24 09:23:55;;;;;;;8.98;6.10;;;-0.50;99.90;;;;;;5051348;28;20568;-62
2023/01/24 09:26:22;;;;;;;11.55;6.35;;;-0.60;99.90;;;;;;5055010;28;20041;-62
2023/01/24 09:28:47;;;;;;;11.10;6.78;;;-0.50;99.90;;;;;;5049073;28;20056;-62
2023/01/24 09:31:13;;;;;;;9.25;6.32;;;-0.40;99.90;;;;;;5053439;28;20483;-62
2023/01/24 09:33:39;;;;;;;8.38;5.90;;;-0.30;99.90;;;;;;5049230;28;20195;-62
2023/01/24 09:36:05;;;;;;;10.05;6.93;;;-0.30;99.90;;;;;;5055679;28;20075;-63
2023/01/24 09:38:32;;;;;;;10.88;6.97;;;-0.30;99.90;;;;;;5048988;28;20044;-62
2023/01/24 09:41:17;;;;;;;10.18;6.68;;;-0.30;99.90;;;;;;5053854;28;20496;-62
2023/01/24 09:43:50;;;;;;;14.32;6.78;;;-0.30;99.90;;;;;;5050467;28;20041;-61
2023/01/24 09:46:24;;;;;;;14.98;7.65;;;-0.20;99.90;;;;;;5053630;28;20099;-62
2023/01/24 09:48:58;;;;;;;9.90;6.40;;;0.00;99.90;;;;;;5053259;28;20072;-61
2023/01/24 09:51:29;;;;;;;10.20;6.72;;;0.00;99.90;;;;;;5053662;28;20041;-62
2023/01/24 09:53:58;;;;;;;9.30;6.55;;;-0.10;99.90;;;;;;5048543;28;20068;-63
2023/01/24 09:56:37;;;;;;;10.00;7.13;;;0.10;99.90;;;;;;5055436;28;20863;-61
2023/01/24 09:59:18;;;;;;;7.88;6.00;;;0.10;99.90;;;;;;5057420;28;20612;-61
2023/01/24 10:01:46;;;;;;;9.02;5.85;;;0.20;99.90;;;;;;5058897;28;20067;-62
2023/01/24 10:04:21;;;;;;;8.70;6.10;;;0.30;99.90;;;;;;5057346;28;20044;-63
2023/01/24 10:07:02;;;;;;;8.30;6.10;;;0.40;99.90;;;;;;5055554;28;20044;-62
2023/01/24 10:09:49;;;;;;;10.52;6.53;;;0.40;99.90;;;;;;5057236;28;20512;-62
2023/01/24 10:12:41;;;;;;;10.70;6.75;;;0.50;99.90;;;;;;5057522;28;20052;-63
2023/01/24 10:15:19;;;;;;;8.90;6.40;;;0.30;99.90;;;;;;5043593;28;20041;-63
2023/01/24 10:18:22;;;;;;;9.93;6.50;;;0.20;99.90;;;;;;5057585;28;20044;-59
2023/01/24 10:20:51;;;;;;;8.75;6.25;;;0.00;99.90;;;;;;5052293;28;20041;-62
2023/01/24 10:23:21;;;;;;;11.18;7.55;;;0.10;99.90;;;;;;5056218;28;20396;-62
2023/01/24 10:25:51;;;;;;;9.65;6.63;;;0.00;99.90;;;;;;5052571;28;20037;-60
2023/01/24 10:28:32;;;;;;;12.50;7.35;;;0.00;99.90;;;;;;5051158;28;20067;-61
2023/01/24 10:31:07;;;;;;;10.43;7.00;;;0.20;99.90;;;;;;5053881;28;20040;-62
2023/01/24 10:33:47;;;;;;;11.95;6.95;;;0.30;99.90;;;;;;5048439;28;20128;-62
2023/01/24 10:36:35;;;;;;;14.05;8.50;;;0.30;99.90;;;;;;5054970;28;20070;-63
2023/01/24 10:39:00;;;;;;;11.32;7.80;;;0.30;99.90;;;;;;5052131;28;20037;-61
2023/01/24 10:41:30;;;;;;;11.35;7.65;;;0.30;99.90;;;;;;5053479;28;20050;-59
2023/01/24 10:44:01;;;;;;;12.02;7.65;;;0.30;99.90;;;;;;5052878;28;20136;-59
2023/01/24 10:46:49;;;;;;;10.23;6.85;;;0.10;99.90;;;;;;5048671;28;20072;-61
2023/01/24 10:49:22;;;;;;;9.40;7.18;;;0.10;99.90;;;;;;5049336;28;20037;-62
2023/01/24 10:52:08;;;;;;;11.38;7.50;;;0.10;99.90;;;;;;5054394;28;20044;-62
2023/01/24 10:54:47;;;;;;;11.30;7.90;;;0.20;99.90;;;;;;5056708;28;20051;-62
2023/01/24 10:57:32;;;;;;;12.55;7.75;;;0.30;99.90;;;;;;5053993;28;20598;-63
2023/01/24 11:00:05;;;;;;;10.70;6.85;;;0.20;99.90;;;;;;5052637;28;20049;-60
2023/01/24 11:02:34;;;;;;;9.98;6.82;;;0.20;99.90;;;;;;5061252;28;20412;-60
2023/01/24 11:05:10;;;;;;;12.52;7.00;;;0.40;99.90;;;;;;5048148;28;20051;-61
2023/01/24 11:07:40;;;;;;;13.60;7.25;;;0.50;99.90;;;;;;5060655;28;20043;-60
2023/01/24 11:10:19;;;;;;;12.68;7.55;;;0.60;99.90;;;;;;5051644;28;20119;-61
2023/01/24 11:12:53;;;;;;;11.35;6.80;;;0.60;99.90;;;;;;5054036;28;20075;-62
2023/01/24 11:15:31;;;;;;;9.50;6.97;;;0.40;99.90;;;;;;5050882;28;20112;-61
2023/01/24 11:18:28;;;;;;;12.52;8.60;;;0.50;99.90;;;;;;5059820;28;20131;-60
2023/01/24 11:21:14;;;;;;;11.02;7.32;;;0.40;99.90;;;;;;5042087;28;20052;-58
2023/01/24 11:23:40;;;;;;;10.18;6.68;;;0.30;99.90;;;;;;5051228;28;20084;-62
2023/01/24 11:26:21;;;;;;;9.77;7.00;;;0.30;99.90;;;;;;5056016;28;20056;-61
2023/01/24 11:28:59;;;;;;;9.90;6.57;;;0.50;99.90;;;;;;5049505;28;20040;-61
2023/01/24 11:32:22;;;;;;;11.85;7.78;;;0.60;99.90;;;;;;5051823;28;20045;-63
2023/01/24 11:35:03;;;;;;;11.35;7.80;;;0.50;99.90;;;;;;4983042;28;20145;-58
2023/01/24 11:37:52;;;;;;;11.00;7.45;;;0.50;99.90;;;;;;4974369;28;20104;-63
2023/01/24 11:40:40;;;;;;;12.70;8.40;;;0.40;99.90;;;;;;5047095;28;20049;-62
2023/01/24 11:43:20;;;;;;;12.40;8.45;;;0.50;99.90;;;;;;5059250;28;20116;-62
2023/01/24 11:45:59;;;;;;;11.55;8.02;;;0.60;99.90;;;;;;5050375;28;20071;-62
2023/01/24 11:49:04;;;;;;;11.18;7.25;;;0.80;99.90;;;;;;5046331;28;20116;-62
2023/01/24 11:52:08;;;;;;;11.55;7.43;;;0.90;99.90;;;;;;5042388;28;20098;-64
2023/01/24 11:54:58;;;;;;;12.25;8.07;;;1.10;99.90;;;;;;5047949;28;20060;-63
2023/01/24 11:57:42;;;;;;;11.20;8.30;;;1.20;99.90;;;;;;5053429;28;20035;-62
2023/01/24 12:00:32;;;;;;;14.68;8.73;;;1.20;99.90;;;;;;5047715;28;20091;-62
2023/01/24 12:03:28;;;;;;;12.52;8.65;;;1.10;99.90;;;;;;5050626;28;20033;-61
2023/01/24 12:06:28;;;;;;;11.40;7.75;;;1.20;99.90;;;;;;5055722;28;20033;-62
2023/01/24 12:09:34;;;;;;;15.05;9.57;;;1.00;99.90;;;;;;5047152;28;20052;-60
2023/01/24 12:12:20;;;;;;;14.57;9.55;;;1.00;99.90;;;;;;5043668;28;20037;-60
2023/01/24 12:14:49;;;;;;;12.45;8.02;;;0.70;99.90;;;;;;5050828;28;20075;-63
2023/01/24 12:17:37;;;;;;;12.50;7.97;;;0.80;99.90;;;;;;5047303;28;20064;-61
2023/01/24 12:20:24;;;;;;;13.82;7.88;;;0.90;99.90;;;;;;5060360;28;20036;-62
2023/01/24 12:22:53;;;;;;;12.05;7.88;;;1.00;99.90;;;;;;5054631;28;20057;-63
2023/01/24 12:25:23;;;;;;;13.43;8.77;;;1.00;99.90;;;;;;5063403;28;20037;-59
2023/01/24 12:27:53;;;;;;;14.27;10.00;;;0.90;99.90;;;;;;5054541;28;20127;-62
2023/01/24 12:30:40;;;;;;;12.75;9.18;;;0.80;99.90;;;;;;5055076;28;20036;-63
2023/01/24 12:33:21;;;;;;;14.98;10.02;;;0.60;99.90;;;;;;5055083;28;20064;-63
2023/01/24 12:35:51;;;;;;;14.27;9.88;;;0.60;99.90;;;;;;5059244;28;20532;-62
2023/01/24 12:38:32;;;;;;;16.05;10.00;;;0.50;99.90;;;;;;5060868;28;20127;-63
2023/01/24 12:41:23;;;;;;;17.63;10.70;;;0.40;99.90;;;;;;5063514;28;20040;-64
2023/01/24 12:44:32;;;;;;;16.90;10.82;;;0.40;99.90;;;;;;5049726;28;20501;-63
2023/01/24 12:47:09;;;;;;;17.70;10.73;;;0.40;99.90;;;;;;5048717;28;20045;-64
2023/01/24 12:49:53;;;;;;;18.92;10.90;;;0.50;99.90;;;;;;5058836;28;20051;-63
2023/01/24 12:52:49;;;;;;;18.17;10.43;;;0.30;99.90;;;;;;5053917;28;20037;-63
2023/01/24 12:55:26;;;;;;;16.25;10.60;;;0.20;99.90;;;;;;5057162;28;20514;-63
2023/01/24 12:58:07;;;;;;;20.27;11.88;;;0.10;99.90;;;;;;5058385;28;20054;-64
2023/01/24 13:00:57;;;;;;;17.00;10.93;;;0.10;99.90;;;;;;5060232;28;20045;-59
2023/01/24 13:03:31;;;;;;;15.80;10.63;;;0.20;99.90;;;;;;5051962;28;20115;-62
2023/01/24 13:06:00;;;;;;;19.67;11.60;;;0.10;99.90;;;;;;5053958;28;20029;-63
2023/01/24 13:08:34;;;;;;;17.88;10.98;;;0.10;99.90;;;;;;5049413;28;20040;-63
2023/01/24 13:11:09;;;;;;;18.13;11.10;;;0.10;99.90;;;;;;5054346;28;20086;-60
2023/01/24 13:13:48;;;;;;;21.02;11.23;;;0.20;99.90;;;;;;5049019;28;20041;-64
2023/01/24 13:16:23;;;;;;;16.80;10.85;;;0.20;99.90;;;;;;5056357;28;20684;-61
2023/01/24 13:19:03;;;;;;;24.27;14.30;;;0.30;99.90;;;;;;5056192;28;20152;-60
2023/01/24 13:22:02;;;;;;;16.67;10.75;;;0.50;99.90;;;;;;5059051;28;20508;-64
2023/01/24 13:24:49;;;;;;;19.30;12.15;;;0.40;99.90;;;;;;5063385;28;20173;-63
2023/01/24 13:27:58;;;;;;;16.92;10.77;;;0.50;99.90;;;;;;5051797;28;20135;-64
2023/01/24 13:30:26;;;;;;;16.30;10.68;;;0.60;99.90;;;;;;5039763;28;20128;-63
2023/01/24 13:32:53;;;;;;;18.70;11.30;;;0.80;99.90;;;;;;5051717;28;20029;-62
2023/01/24 13:35:22;;;;;;;19.33;12.10;;;0.90;99.90;;;;;;5062617;28;21075;-62